createdAt,value
2023-04-20T00:00:26.229Z,59.45
2023-04-20T00:03:14.537Z,57.30
2023-04-20T00:05:43.371Z,56.28
2023-04-20T00:08:12.700Z,56.67
2023-04-20T00:10:41.099Z,58.55
2023-04-20T00:13:09.256Z,59.55
2023-04-20T00:15:39.015Z,60.03
2023-04-20T00:18:07.631Z,58.30
2023-04-20T00:20:36.810Z,60.63
2023-04-20T00:23:04.967Z,59.58
2023-04-20T00:25:33.407Z,59.83
2023-04-20T00:28:01.539Z,58.70
2023-04-20T00:30:29.955Z,63.53
2023-04-20T00:32:59.480Z,61.38
2023-04-20T00:35:27.954Z,63.47
2023-04-20T00:37:56.036Z,62.03
2023-04-20T00:40:24.463Z,64.38
2023-04-20T00:42:52.622Z,64.57
2023-04-20T00:45:22.148Z,63.13
2023-04-20T00:47:50.617Z,62.70
2023-04-20T00:50:21.004Z,67.53
2023-04-20T00:52:49.188Z,62.13
2023-04-20T00:55:17.569Z,64.03
2023-04-20T00:57:46.068Z,61.05
2023-04-20T01:00:15.070Z,63.90
2023-04-20T01:02:43.360Z,65.72
2023-04-20T01:05:12.260Z,64.80
2023-04-20T01:07:41.933Z,64.07
2023-04-20T01:10:11.124Z,66.70
2023-04-20T01:12:39.264Z,65.43
2023-04-20T01:15:09.027Z,67.82
2023-04-20T01:17:38.103Z,70.40
2023-04-20T01:20:09.071Z,68.68
2023-04-20T01:22:45.907Z,70.68
2023-04-20T01:25:14.657Z,70.18
2023-04-20T01:27:42.809Z,71.80
2023-04-20T01:30:12.145Z,74.63
2023-04-20T01:32:41.017Z,74.50
2023-04-20T01:35:10.833Z,72.43
2023-04-20T01:37:39.784Z,74.75
2023-04-20T01:40:10.925Z,75.85
2023-04-20T01:42:39.384Z,73.82
2023-04-20T01:45:08.902Z,76.82
2023-04-20T01:47:38.140Z,76.18
2023-04-20T01:50:07.283Z,79.88
2023-04-20T01:52:35.510Z,76.72
2023-04-20T01:55:03.889Z,75.10
2023-04-20T01:57:33.363Z,75.35
2023-04-20T02:00:01.789Z,73.82
2023-04-20T02:02:30.087Z,77.45
2023-04-20T02:04:58.715Z,79.38
2023-04-20T02:07:26.964Z,81.38
2023-04-20T02:09:55.362Z,77.72
2023-04-20T02:12:23.528Z,74.57
2023-04-20T02:14:53.379Z,79.10
2023-04-20T02:17:21.656Z,78.38
2023-04-20T02:19:50.106Z,78.25
2023-04-20T02:22:18.274Z,76.57
2023-04-20T02:24:46.721Z,79.22
2023-04-20T02:27:14.797Z,76.25
2023-04-20T02:29:43.157Z,77.95
2023-04-20T02:32:12.778Z,79.18
2023-04-20T02:34:41.306Z,76.75
2023-04-20T02:37:09.371Z,77.45
2023-04-20T02:39:37.868Z,77.40
2023-04-20T02:42:06.521Z,77.03
2023-04-20T02:44:34.900Z,79.40
2023-04-20T02:47:03.115Z,79.18
2023-04-20T02:49:33.043Z,80.53
2023-04-20T02:52:01.130Z,79.53
2023-04-20T02:54:29.532Z,80.40
2023-04-20T02:56:58.730Z,81.63
2023-04-20T02:59:27.149Z,80.78
2023-04-20T03:01:55.299Z,80.95
2023-04-20T03:04:24.026Z,82.63
2023-04-20T03:06:53.731Z,81.60
2023-04-20T03:09:22.152Z,85.10
2023-04-20T03:11:50.541Z,85.80
2023-04-20T03:14:18.924Z,84.75
2023-04-20T03:16:47.388Z,83.22
2023-04-20T03:19:16.558Z,83.22
2023-04-20T03:21:46.114Z,81.75
2023-04-20T03:24:16.163Z,85.03
2023-04-20T03:26:44.257Z,86.78
2023-04-20T03:29:12.633Z,86.43
2023-04-20T03:31:40.983Z,83.93
2023-04-20T03:34:09.414Z,84.20
2023-04-20T03:36:37.639Z,84.65
2023-04-20T03:39:06.158Z,84.88
2023-04-20T03:41:35.626Z,85.60
2023-04-20T03:44:04.037Z,84.22
2023-04-20T03:46:32.174Z,79.13
2023-04-20T03:49:00.790Z,83.47
2023-04-20T03:51:29.154Z,84.30
2023-04-20T03:53:57.547Z,81.63
2023-04-20T03:56:26.853Z,79.40
2023-04-20T03:58:56.592Z,81.72
2023-04-20T04:01:24.793Z,85.38
2023-04-20T04:03:53.295Z,81.05
2023-04-20T04:06:21.498Z,83.88
2023-04-20T04:08:50.519Z,85.43
2023-04-20T04:11:18.733Z,82.97
2023-04-20T04:13:47.200Z,83.90
2023-04-20T04:16:16.724Z,83.32
2023-04-20T04:18:45.785Z,84.30
2023-04-20T04:21:13.876Z,84.28
2023-04-20T04:23:42.818Z,83.80
2023-04-20T04:26:12.059Z,82.75
2023-04-20T04:28:40.586Z,84.28
2023-04-20T04:31:09.740Z,83.80
2023-04-20T04:33:39.662Z,84.68
2023-04-20T04:36:08.250Z,83.95
2023-04-20T04:38:37.006Z,83.45
2023-04-20T04:41:05.412Z,82.25
2023-04-20T04:43:33.914Z,83.25
2023-04-20T04:46:07.994Z,82.80
2023-04-20T04:48:36.547Z,78.38
2023-04-20T04:51:06.122Z,80.57
2023-04-20T04:53:34.590Z,79.15
2023-04-20T04:56:03.778Z,78.43
2023-04-20T04:58:32.270Z,79.22
2023-04-20T05:01:09.402Z,78.60
2023-04-20T05:03:38.174Z,76.95
2023-04-20T05:06:08.467Z,73.80
2023-04-20T05:08:39.238Z,70.32
2023-04-20T05:11:07.367Z,70.95
2023-04-20T05:13:35.842Z,67.80
2023-04-20T05:16:04.076Z,61.95
2023-04-20T05:18:32.509Z,62.40
2023-04-20T05:21:03.922Z,61.72
2023-04-20T05:23:33.773Z,68.28
2023-04-20T05:26:01.961Z,65.30
2023-04-20T05:28:30.486Z,67.18
2023-04-20T05:30:58.759Z,64.55
2023-04-20T05:33:27.677Z,64.38
2023-04-20T05:35:57.679Z,63.72
2023-04-20T05:38:26.520Z,62.53
2023-04-20T05:40:57.054Z,63.00
2023-04-20T05:43:25.533Z,62.95
2023-04-20T05:45:54.249Z,63.88
2023-04-20T05:48:22.721Z,62.13
2023-04-20T05:50:50.862Z,60.03
2023-04-20T05:53:19.379Z,57.78
2023-04-20T05:55:47.453Z,57.88
2023-04-20T05:58:17.385Z,59.35
2023-04-20T06:00:46.141Z,62.97
2023-04-20T06:03:14.717Z,64.78
2023-04-20T06:05:43.170Z,64.82
2023-04-20T06:08:12.132Z,61.83
2023-04-20T06:10:40.413Z,62.28
2023-04-20T06:13:08.795Z,66.53
2023-04-20T06:15:38.504Z,73.20
2023-04-20T06:18:07.155Z,68.72
2023-04-20T06:20:35.319Z,68.38
2023-04-20T06:23:04.101Z,63.03
2023-04-20T06:25:32.801Z,54.53
2023-04-20T06:28:01.534Z,60.85
2023-04-20T06:30:30.037Z,52.03
2023-04-20T06:33:00.678Z,54.90
2023-04-20T06:35:28.880Z,47.70
2023-04-20T06:37:57.822Z,43.60
2023-04-20T06:40:28.159Z,44.17
2023-04-20T06:42:56.571Z,47.63
2023-04-20T06:45:25.046Z,50.75
2023-04-20T06:47:53.876Z,46.15
2023-04-20T06:50:23.644Z,44.72
2023-04-20T06:52:52.290Z,47.90
2023-04-20T06:55:20.972Z,51.08
2023-04-20T06:57:49.445Z,52.38
2023-04-20T07:00:18.747Z,52.13
2023-04-20T07:02:47.985Z,49.97
2023-04-20T07:05:17.244Z,46.08
2023-04-20T07:07:47.140Z,45.90
2023-04-20T07:10:16.954Z,43.25
2023-04-20T07:12:45.592Z,43.72
2023-04-20T07:15:14.199Z,45.30
2023-04-20T07:17:42.981Z,44.78
2023-04-20T07:20:11.650Z,45.47
2023-04-20T07:22:40.686Z,43.63
2023-04-20T07:25:11.347Z,46.75
2023-04-20T07:27:41.099Z,44.67
2023-04-20T07:30:10.846Z,41.85
2023-04-20T07:32:40.838Z,42.60
2023-04-20T07:35:10.151Z,42.75
2023-04-20T07:37:38.693Z,45.20
2023-04-20T07:40:08.155Z,44.13
2023-04-20T07:42:38.170Z,43.40
2023-04-20T07:45:07.688Z,46.85
2023-04-20T07:47:36.558Z,43.08
2023-04-20T07:50:05.151Z,45.25
2023-04-20T07:52:33.889Z,44.58
2023-04-20T07:55:02.059Z,42.75
2023-04-20T07:57:30.892Z,42.53
2023-04-20T08:00:00.621Z,41.80
2023-04-20T08:02:29.140Z,41.97
2023-04-20T08:04:57.713Z,40.95
2023-04-20T08:07:26.406Z,41.88
2023-04-20T08:09:54.592Z,42.47
2023-04-20T08:12:22.979Z,38.92
2023-04-20T08:14:51.876Z,34.92
2023-04-20T08:17:22.014Z,37.80
2023-04-20T08:19:50.168Z,34.42
2023-04-20T08:22:18.851Z,35.25
2023-04-20T08:24:47.339Z,32.42
2023-04-20T08:27:15.715Z,35.22
2023-04-20T08:29:44.349Z,36.10
2023-04-20T08:32:13.692Z,36.63
2023-04-20T08:34:43.184Z,36.85
2023-04-20T08:37:12.015Z,35.60
2023-04-20T08:39:40.142Z,35.42
2023-04-20T08:42:08.529Z,34.30
2023-04-20T08:44:36.875Z,34.83
2023-04-20T08:47:05.748Z,33.35
2023-04-20T08:49:34.381Z,32.50
2023-04-20T08:52:04.577Z,31.58
2023-04-20T08:54:33.796Z,30.13
2023-04-20T08:57:03.644Z,29.58
2023-04-20T08:59:32.020Z,31.48
2023-04-20T09:02:10.642Z,32.70
2023-04-20T09:04:39.911Z,32.25
2023-04-20T09:07:18.420Z,32.50
2023-04-20T09:09:56.408Z,31.98
2023-04-20T09:12:25.623Z,23.17
2023-04-20T09:14:54.276Z,19.80
2023-04-20T09:17:33.377Z,21.08
2023-04-20T09:20:01.802Z,19.55
2023-04-20T09:22:36.677Z,20.10
2023-04-20T09:25:14.646Z,18.27
2023-04-20T09:27:43.221Z,18.80
2023-04-20T09:30:12.294Z,19.05
2023-04-20T09:32:40.823Z,19.05
2023-04-20T09:35:09.547Z,19.70
2023-04-20T09:37:48.588Z,20.45
2023-04-20T09:40:17.565Z,20.17
2023-04-20T09:42:46.342Z,17.20
2023-04-20T09:45:16.292Z,16.65
2023-04-20T09:47:45.749Z,18.58
2023-04-20T09:50:26.602Z,16.58
2023-04-20T09:52:59.334Z,17.25
2023-04-20T09:55:27.804Z,18.67
2023-04-20T09:57:56.727Z,20.48
2023-04-20T10:00:25.110Z,17.80
2023-04-20T10:02:53.982Z,18.67
2023-04-20T10:05:34.145Z,18.67
2023-04-20T10:08:04.652Z,17.65
2023-04-20T10:10:32.914Z,16.73
2023-04-20T10:13:02.469Z,17.30
2023-04-20T10:15:40.285Z,17.27
2023-04-20T10:18:23.606Z,18.13
2023-04-20T10:20:52.699Z,18.33
2023-04-20T10:23:22.431Z,19.60
2023-04-20T10:25:57.589Z,19.02
2023-04-20T10:28:26.687Z,20.02
2023-04-20T10:30:55.259Z,19.80
2023-04-20T10:33:24.038Z,17.48
2023-04-20T10:35:54.881Z,18.02
2023-04-20T10:38:31.844Z,19.07
2023-04-20T10:41:07.844Z,19.90
2023-04-20T10:43:39.193Z,18.77
2023-04-20T10:46:18.134Z,19.20
2023-04-20T10:48:54.009Z,16.25
2023-04-20T10:51:22.225Z,14.40
2023-04-20T10:54:04.732Z,15.85
2023-04-20T10:56:40.687Z,16.92
2023-04-20T10:59:10.141Z,15.05
2023-04-20T11:01:38.510Z,13.63
2023-04-20T11:04:07.395Z,13.27
2023-04-20T11:06:35.987Z,13.60
2023-04-20T11:09:05.943Z,13.07
2023-04-20T11:11:37.434Z,13.35
2023-04-20T11:14:08.041Z,15.13
2023-04-20T11:16:47.886Z,15.77
2023-04-20T11:19:24.158Z,15.45
2023-04-20T11:21:52.341Z,16.75
2023-04-20T11:24:23.023Z,13.70
2023-04-20T11:26:53.276Z,15.82
2023-04-20T11:29:33.094Z,13.93
2023-04-20T11:32:04.096Z,13.30
2023-04-20T11:34:33.488Z,14.43
2023-04-20T11:37:06.473Z,14.18
2023-04-20T11:39:36.661Z,14.15
2023-04-20T11:42:05.419Z,15.57
2023-04-20T11:44:36.485Z,14.35
2023-04-20T11:47:04.934Z,13.43
2023-04-20T11:49:33.664Z,13.63
2023-04-20T11:52:01.918Z,12.30
2023-04-20T11:54:33.903Z,11.88
2023-04-20T11:57:04.531Z,12.60
2023-04-20T11:59:33.067Z,12.23
2023-04-20T12:02:04.109Z,12.75
2023-04-20T12:04:34.476Z,11.90
2023-04-20T12:07:03.380Z,11.73
2023-04-20T12:09:36.009Z,11.50
2023-04-20T12:12:06.387Z,10.13
2023-04-20T12:14:35.049Z,9.98
2023-04-20T12:17:03.869Z,10.80
2023-04-20T12:19:32.737Z,9.85
2023-04-20T12:22:00.901Z,9.77
2023-04-20T12:24:29.287Z,9.68
2023-04-20T12:26:58.048Z,8.90
2023-04-20T12:29:27.936Z,9.13
2023-04-20T12:31:56.208Z,9.20
2023-04-20T12:34:25.034Z,8.02
2023-04-20T12:36:53.128Z,9.40
2023-04-20T12:39:21.952Z,9.25
2023-04-20T12:41:50.266Z,9.82
2023-04-20T12:44:18.870Z,8.30
2023-04-20T12:46:48.572Z,9.00
2023-04-20T12:49:17.183Z,9.52
2023-04-20T12:51:45.472Z,10.18
2023-04-20T12:54:13.902Z,9.45
2023-04-20T12:56:42.074Z,10.57
2023-04-20T12:59:11.140Z,9.05
2023-04-20T13:01:39.304Z,7.72
2023-04-20T13:04:09.568Z,8.15
2023-04-20T13:06:37.908Z,8.32
2023-04-20T13:09:07.331Z,8.60
2023-04-20T13:11:35.617Z,9.27
2023-04-20T13:14:04.904Z,8.40
2023-04-20T13:16:33.383Z,7.18
2023-04-20T13:19:02.735Z,5.75
2023-04-20T13:21:33.521Z,5.15
2023-04-20T13:24:02.163Z,8.02
2023-04-20T13:26:30.339Z,6.20
2023-04-20T13:28:58.957Z,5.70
2023-04-20T13:31:27.543Z,4.63
2023-04-20T13:33:56.380Z,4.60
2023-04-20T13:36:25.294Z,4.97
2023-04-20T13:38:55.801Z,4.82
2023-04-20T13:41:24.590Z,4.38
2023-04-20T13:43:52.995Z,4.30
2023-04-20T13:46:21.388Z,4.30
2023-04-20T13:48:49.865Z,4.90
2023-04-20T13:51:17.997Z,5.47
2023-04-20T13:53:47.966Z,4.63
2023-04-20T13:56:18.284Z,5.63
2023-04-20T13:58:46.833Z,5.50
2023-04-20T14:01:16.745Z,5.20
2023-04-20T14:03:45.844Z,7.13
2023-04-20T14:06:14.140Z,5.13
2023-04-20T14:08:42.600Z,7.50
2023-04-20T14:11:10.745Z,6.40
2023-04-20T14:13:41.131Z,6.40
2023-04-20T14:16:11.051Z,5.93
2023-04-20T14:18:39.817Z,6.00
2023-04-20T14:21:08.033Z,5.57
2023-04-20T14:23:36.680Z,6.32
2023-04-20T14:26:05.043Z,5.78
2023-04-20T14:28:33.625Z,6.10
2023-04-20T14:31:04.075Z,5.32
2023-04-20T14:33:32.665Z,5.20
2023-04-20T14:36:00.780Z,6.45
2023-04-20T14:38:29.184Z,7.38
2023-04-20T14:40:57.618Z,5.43
2023-04-20T14:43:26.100Z,5.82
2023-04-20T14:45:55.229Z,5.90
2023-04-20T14:48:26.581Z,6.13
2023-04-20T14:50:55.123Z,6.10
2023-04-20T14:53:23.730Z,5.60
2023-04-20T14:55:52.223Z,6.15
2023-04-20T14:58:21.538Z,6.68
2023-04-20T15:00:50.158Z,5.57
2023-04-20T15:03:19.627Z,5.22
2023-04-20T15:05:49.514Z,4.75
2023-04-20T15:08:18.624Z,5.43
2023-04-20T15:10:46.903Z,11.57
2023-04-20T15:13:15.482Z,4.72
2023-04-20T15:15:48.939Z,5.68
2023-04-20T15:18:18.497Z,3.88
2023-04-20T15:20:46.827Z,4.97
2023-04-20T15:23:16.722Z,23.08
2023-04-20T15:25:45.191Z,17.35
2023-04-20T15:28:13.647Z,4.40
2023-04-20T15:30:42.089Z,4.25
2023-04-20T15:33:11.290Z,17.42
2023-04-20T15:35:39.799Z,5.63
2023-04-20T15:38:08.633Z,4.95
2023-04-20T15:40:39.219Z,7.30
2023-04-20T15:43:07.740Z,7.75
2023-04-20T15:45:36.048Z,43.35
2023-04-20T15:48:04.763Z,21.00
2023-04-20T15:50:32.996Z,16.73
2023-04-20T15:53:01.378Z,7.15
2023-04-20T15:55:34.250Z,9.63
2023-04-20T15:58:04.023Z,8.23
2023-04-20T16:00:32.462Z,4.55
2023-04-20T16:03:02.140Z,18.23
2023-04-20T16:05:30.521Z,7.97
2023-04-20T16:07:59.130Z,6.55
2023-04-20T16:10:28.126Z,8.02
2023-04-20T16:12:56.956Z,4.75
2023-04-20T16:15:26.677Z,4.90
2023-04-20T16:17:55.241Z,6.07
2023-04-20T16:20:23.550Z,7.75
2023-04-20T16:22:52.390Z,12.98
2023-04-20T16:25:23.996Z,7.43
2023-04-20T16:27:52.479Z,9.43
2023-04-20T16:30:21.030Z,14.25
2023-04-20T16:32:50.823Z,12.00
2023-04-20T16:35:19.453Z,15.13
2023-04-20T16:37:47.823Z,15.88
2023-04-20T16:40:15.969Z,14.93
2023-04-20T16:42:44.474Z,20.20
2023-04-20T16:45:12.713Z,18.05
2023-04-20T16:47:41.309Z,7.97
2023-04-20T16:50:14.149Z,8.15
2023-04-20T16:52:42.834Z,9.98
2023-04-20T16:55:11.409Z,6.85
2023-04-20T16:57:39.796Z,6.47
2023-04-20T17:00:10.782Z,5.18
2023-04-20T17:02:39.638Z,6.13
2023-04-20T17:05:10.430Z,7.00
2023-04-20T17:07:38.903Z,10.80
2023-04-20T17:10:08.042Z,9.23
2023-04-20T17:12:36.452Z,12.48
2023-04-20T17:15:05.406Z,19.73
2023-04-20T17:17:34.809Z,25.25
2023-04-20T17:20:06.460Z,15.13
2023-04-20T17:25:07.179Z,11.13
2023-04-20T17:27:36.633Z,14.93
2023-04-20T17:30:05.153Z,11.38
2023-04-20T17:32:33.567Z,8.70
2023-04-20T17:35:02.119Z,7.82
2023-04-20T17:37:30.564Z,6.95
2023-04-20T17:40:00.088Z,8.07
2023-04-20T17:42:28.558Z,9.93
2023-04-20T17:44:56.695Z,11.00
2023-04-20T17:47:25.133Z,11.55
2023-04-20T17:49:53.915Z,11.07
2023-04-20T17:52:22.309Z,18.98
2023-04-20T17:54:50.423Z,9.57
2023-04-20T17:57:20.546Z,6.63
2023-04-20T17:59:49.075Z,6.60
2023-04-20T18:02:17.764Z,7.03
2023-04-20T18:04:46.744Z,7.07
2023-04-20T18:07:16.836Z,7.30
2023-04-20T18:09:45.074Z,10.18
2023-04-20T18:12:13.498Z,11.38
2023-04-20T18:14:44.081Z,15.48
2023-04-20T18:17:12.509Z,15.07
2023-04-20T18:19:41.275Z,18.80
2023-04-20T18:22:09.848Z,20.27
2023-04-20T18:24:38.050Z,23.60
2023-04-20T18:27:07.254Z,21.10
2023-04-20T18:29:35.429Z,17.77
2023-04-20T18:32:05.709Z,14.30
2023-04-20T18:34:34.126Z,24.77
2023-04-20T18:37:02.558Z,19.85
2023-04-20T18:39:30.873Z,27.13
2023-04-20T18:41:59.386Z,26.23
2023-04-20T18:44:28.360Z,24.40
2023-04-20T18:46:56.864Z,20.80
2023-04-20T18:49:26.827Z,16.80
2023-04-20T18:51:55.730Z,16.15
2023-04-20T18:54:23.873Z,13.25
2023-04-20T18:56:54.693Z,13.25
2023-04-20T18:59:24.612Z,13.60
2023-04-20T19:01:53.079Z,16.02
2023-04-20T19:04:21.979Z,14.32
2023-04-20T19:06:52.088Z,15.57
2023-04-20T19:09:20.270Z,13.77
2023-04-20T19:11:48.798Z,14.07
2023-04-20T19:14:17.057Z,14.30
2023-04-20T19:16:45.680Z,12.63
2023-04-20T19:19:13.851Z,13.77
2023-04-20T19:21:42.784Z,13.63
2023-04-20T19:24:12.274Z,12.68
2023-04-20T19:26:40.672Z,13.52
2023-04-20T19:29:08.945Z,11.57
2023-04-20T19:31:39.978Z,10.38
2023-04-20T19:34:08.670Z,11.38
2023-04-20T19:36:37.052Z,10.35
2023-04-20T19:39:06.994Z,10.90
2023-04-20T19:41:37.101Z,7.93
2023-04-20T19:44:06.339Z,9.95
2023-04-20T19:46:34.992Z,10.10
2023-04-20T19:49:03.592Z,9.93
2023-04-20T19:51:32.624Z,9.82
2023-04-20T19:54:01.827Z,10.60
2023-04-20T19:56:30.271Z,10.55
2023-04-20T19:58:59.876Z,8.55
2023-04-20T20:01:28.334Z,10.15
2023-04-20T20:03:57.234Z,10.73
2023-04-20T20:06:26.946Z,11.02
2023-04-20T20:08:55.085Z,12.05
2023-04-20T20:11:25.346Z,11.13
2023-04-20T20:13:53.917Z,11.00
2023-04-20T20:16:23.809Z,16.70
2023-04-20T20:18:52.150Z,12.10
2023-04-20T20:21:20.665Z,14.07
2023-04-20T20:23:48.985Z,13.50
2023-04-20T20:26:17.394Z,12.75
2023-04-20T20:28:45.568Z,12.93
2023-04-20T20:31:14.071Z,13.05
2023-04-20T20:33:43.752Z,14.77
2023-04-20T20:36:12.219Z,14.85
2023-04-20T20:38:41.192Z,15.65
2023-04-20T20:41:10.870Z,14.75
2023-04-20T20:43:41.738Z,16.63
2023-04-20T20:46:10.381Z,16.27
2023-04-20T20:48:38.586Z,15.90
2023-04-20T20:51:08.321Z,16.17
2023-04-20T20:53:36.591Z,17.08
2023-04-20T20:56:05.104Z,15.68
2023-04-20T20:58:33.237Z,16.50
2023-04-20T21:01:01.663Z,17.00
2023-04-20T21:03:30.620Z,16.88
2023-04-20T21:05:59.127Z,19.00
2023-04-20T21:08:29.279Z,19.60
2023-04-20T21:10:57.796Z,18.05
2023-04-20T21:13:26.176Z,17.95
2023-04-20T21:15:54.763Z,17.90
2023-04-20T21:18:22.921Z,17.17
2023-04-20T21:20:51.313Z,18.52
2023-04-20T21:23:19.453Z,18.90
2023-04-20T21:25:49.180Z,18.83
2023-04-20T21:28:17.310Z,19.20
2023-04-20T21:30:45.854Z,18.88
2023-04-20T21:33:14.027Z,19.33
2023-04-20T21:35:42.467Z,20.27
2023-04-20T21:38:10.643Z,20.52
2023-04-20T21:40:39.038Z,19.45
2023-04-20T21:43:08.546Z,19.83
2023-04-20T21:45:37.427Z,19.90
2023-04-20T21:48:06.117Z,21.25
2023-04-20T21:50:34.545Z,22.85
2023-04-20T21:53:02.644Z,22.17
2023-04-20T21:55:31.094Z,22.63
2023-04-20T21:57:59.228Z,23.60
2023-04-20T22:00:29.120Z,22.85
2023-04-20T22:02:57.634Z,22.85
2023-04-20T22:05:26.178Z,26.77
2023-04-20T22:07:54.363Z,28.42
2023-04-20T22:10:22.775Z,27.20
2023-04-20T22:12:50.954Z,29.13
2023-04-20T22:15:22.118Z,29.05
2023-04-20T22:17:52.312Z,28.45
2023-04-20T22:20:20.978Z,29.52
2023-04-20T22:22:49.091Z,30.30
2023-04-20T22:25:17.681Z,29.33
2023-04-20T22:27:45.869Z,28.50
2023-04-20T22:30:14.913Z,29.02
2023-04-20T22:32:43.048Z,29.20
2023-04-20T22:35:12.995Z,29.48
2023-04-20T22:37:41.208Z,30.27
2023-04-20T22:40:12.355Z,30.88
2023-04-20T22:42:40.583Z,31.30
2023-04-20T22:45:10.860Z,31.33
2023-04-20T22:47:39.274Z,31.40
2023-04-20T22:50:09.465Z,31.48
2023-04-20T22:52:39.215Z,31.90
2023-04-20T22:55:08.968Z,31.42
2023-04-20T22:57:38.728Z,31.50
2023-04-20T23:00:10.474Z,31.50
2023-04-20T23:02:39.077Z,31.33
2023-04-20T23:05:08.768Z,32.13
2023-04-20T23:07:39.364Z,31.08
2023-04-20T23:10:09.354Z,31.80
2023-04-20T23:12:38.306Z,34.53
2023-04-20T23:15:07.459Z,32.33
2023-04-20T23:17:35.656Z,32.63
2023-04-20T23:20:04.604Z,32.90
2023-04-20T23:22:32.734Z,34.63
2023-04-20T23:25:02.503Z,34.08
2023-04-20T23:27:30.604Z,34.17
2023-04-20T23:29:59.199Z,36.58
2023-04-20T23:32:27.464Z,35.92
2023-04-20T23:34:55.813Z,35.85
2023-04-20T23:37:23.934Z,34.75
2023-04-20T23:39:52.442Z,35.35
2023-04-20T23:42:21.889Z,37.13
2023-04-20T23:44:50.276Z,35.00
2023-04-20T23:47:18.430Z,36.15
2023-04-20T23:49:46.824Z,36.28
2023-04-20T23:52:14.967Z,38.95
2023-04-20T23:54:43.333Z,37.90
2023-04-20T23:57:11.445Z,37.20
2023-04-20T23:59:41.190Z,38.30
